sensor_id;sensor_type;location;lat;lon;timestamp;P1;durP1;ratioP1;P2;durP2;ratioP2
12059;SDS011;6091;51.432;6.880;2022-11-12T00:01:05;1.50;;;1.40;;
12059;SDS011;6091;51.432;6.880;2022-11-12T00:03:32;1.42;;;1.33;;
12059;SDS011;6091;51.432;6.880;2022-11-12T00:05:59;1.65;;;1.55;;
12059;SDS011;6091;51.432;6.880;2022-11-12T00:08:26;1.45;;;1.35;;
12059;SDS011;6091;51.432;6.880;2022-11-12T00:10:54;1.65;;;1.55;;
12059;SDS011;6091;51.432;6.880;2022-11-12T00:13:21;1.77;;;1.67;;
12059;SDS011;6091;51.432;6.880;2022-11-12T00:15:48;1.70;;;1.60;;
12059;SDS011;6091;51.432;6.880;2022-11-12T00:18:15;1.85;;;1.70;;
12059;SDS011;6091;51.432;6.880;2022-11-12T00:20:42;1.42;;;1.33;;
12059;SDS011;6091;51.432;6.880;2022-11-12T00:23:10;1.70;;;1.60;;
12059;SDS011;6091;51.432;6.880;2022-11-12T00:25:37;1.70;;;1.60;;
12059;SDS011;6091;51.432;6.880;2022-11-12T00:28:05;1.30;;;1.20;;
12059;SDS011;6091;51.432;6.880;2022-11-12T00:30:39;1.48;;;1.38;;
12059;SDS011;6091;51.432;6.880;2022-11-12T00:33:07;1.70;;;1.40;;
12059;SDS011;6091;51.432;6.880;2022-11-12T00:35:34;1.30;;;1.20;;
12059;SDS011;6091;51.432;6.880;2022-11-12T00:38:01;1.65;;;1.50;;
12059;SDS011;6091;51.432;6.880;2022-11-12T00:40:28;1.30;;;1.20;;
12059;SDS011;6091;51.432;6.880;2022-11-12T00:42:56;1.50;;;1.40;;
12059;SDS011;6091;51.432;6.880;2022-11-12T00:45:23;1.40;;;1.30;;
12059;SDS011;6091;51.432;6.880;2022-11-12T00:47:56;1.85;;;1.67;;
12059;SDS011;6091;51.432;6.880;2022-11-12T00:50:23;1.50;;;1.40;;
12059;SDS011;6091;51.432;6.880;2022-11-12T00:52:51;1.40;;;1.30;;
12059;SDS011;6091;51.432;6.880;2022-11-12T00:55:19;1.65;;;1.55;;
12059;SDS011;6091;51.432;6.880;2022-11-12T00:57:46;1.30;;;1.20;;
12059;SDS011;6091;51.432;6.880;2022-11-12T01:00:14;1.50;;;1.40;;
12059;SDS011;6091;51.432;6.880;2022-11-12T01:02:44;1.55;;;1.45;;
12059;SDS011;6091;51.432;6.880;2022-11-12T01:05:16;1.60;;;1.50;;
12059;SDS011;6091;51.432;6.880;2022-11-12T01:07:45;1.35;;;1.20;;
12059;SDS011;6091;51.432;6.880;2022-11-12T01:10:19;1.65;;;1.55;;
12059;SDS011;6091;51.432;6.880;2022-11-12T01:12:46;1.00;;;0.98;;
12059;SDS011;6091;51.432;6.880;2022-11-12T01:15:13;1.58;;;1.48;;
12059;SDS011;6091;51.432;6.880;2022-11-12T01:17:40;1.65;;;1.55;;
12059;SDS011;6091;51.432;6.880;2022-11-12T01:20:07;1.15;;;1.05;;
12059;SDS011;6091;51.432;6.880;2022-11-12T01:22:35;1.20;;;1.10;;
12059;SDS011;6091;51.432;6.880;2022-11-12T01:25:05;1.42;;;1.30;;
12059;SDS011;6091;51.432;6.880;2022-11-12T01:27:32;1.65;;;1.55;;
12059;SDS011;6091;51.432;6.880;2022-11-12T01:29:59;1.45;;;1.30;;
12059;SDS011;6091;51.432;6.880;2022-11-12T01:32:26;1.33;;;1.23;;
12059;SDS011;6091;51.432;6.880;2022-11-12T01:34:53;1.50;;;1.40;;
12059;SDS011;6091;51.432;6.880;2022-11-12T01:37:20;1.48;;;1.38;;
12059;SDS011;6091;51.432;6.880;2022-11-12T01:39:49;1.48;;;1.38;;
12059;SDS011;6091;51.432;6.880;2022-11-12T01:42:16;1.50;;;1.15;;
12059;SDS011;6091;51.432;6.880;2022-11-12T01:44:43;1.38;;;1.27;;
12059;SDS011;6091;51.432;6.880;2022-11-12T01:52:36;1.40;;;1.30;;
12059;SDS011;6091;51.432;6.880;2022-11-12T01:55:28;1.27;;;1.17;;
12059;SDS011;6091;51.432;6.880;2022-11-12T01:58:09;1.58;;;1.48;;
12059;SDS011;6091;51.432;6.880;2022-11-12T02:00:39;1.38;;;1.27;;
12059;SDS011;6091;51.432;6.880;2022-11-12T02:03:23;1.65;;;1.55;;
12059;SDS011;6091;51.432;6.880;2022-11-12T02:05:52;1.40;;;1.30;;
12059;SDS011;6091;51.432;6.880;2022-11-12T02:08:26;1.38;;;1.27;;
12059;SDS011;6091;51.432;6.880;2022-11-12T02:10:56;1.55;;;1.45;;
12059;SDS011;6091;51.432;6.880;2022-11-12T02:13:23;1.40;;;1.30;;
12059;SDS011;6091;51.432;6.880;2022-11-12T02:16:09;1.20;;;1.10;;
12059;SDS011;6091;51.432;6.880;2022-11-12T02:18:36;1.40;;;1.30;;
12059;SDS011;6091;51.432;6.880;2022-11-12T02:21:04;1.65;;;1.55;;
12059;SDS011;6091;51.432;6.880;2022-11-12T02:23:33;1.75;;;1.65;;
12059;SDS011;6091;51.432;6.880;2022-11-12T02:26:02;1.42;;;1.33;;
12059;SDS011;6091;51.432;6.880;2022-11-12T02:28:29;1.60;;;1.50;;
12059;SDS011;6091;51.432;6.880;2022-11-12T02:30:58;1.73;;;1.50;;
12059;SDS011;6091;51.432;6.880;2022-11-12T02:33:25;1.42;;;1.33;;
12059;SDS011;6091;51.432;6.880;2022-11-12T02:35:52;1.42;;;1.33;;
12059;SDS011;6091;51.432;6.880;2022-11-12T02:38:19;1.83;;;1.50;;
12059;SDS011;6091;51.432;6.880;2022-11-12T02:40:46;1.42;;;1.33;;
12059;SDS011;6091;51.432;6.880;2022-11-12T02:43:13;1.60;;;1.50;;
12059;SDS011;6091;51.432;6.880;2022-11-12T02:45:40;1.48;;;1.38;;
12059;SDS011;6091;51.432;6.880;2022-11-12T02:48:06;1.40;;;1.30;;
12059;SDS011;6091;51.432;6.880;2022-11-12T02:50:33;1.65;;;1.55;;
12059;SDS011;6091;51.432;6.880;2022-11-12T02:53:00;1.52;;;1.42;;
12059;SDS011;6091;51.432;6.880;2022-11-12T02:55:27;1.50;;;1.40;;
12059;SDS011;6091;51.432;6.880;2022-11-12T02:57:57;1.50;;;1.40;;
12059;SDS011;6091;51.432;6.880;2022-11-12T03:00:25;1.40;;;1.30;;
12059;SDS011;6091;51.432;6.880;2022-11-12T03:02:52;1.45;;;1.35;;
12059;SDS011;6091;51.432;6.880;2022-11-12T03:05:25;1.55;;;1.45;;
12059;SDS011;6091;51.432;6.880;2022-11-12T03:07:58;1.40;;;1.30;;
12059;SDS011;6091;51.432;6.880;2022-11-12T03:10:38;1.55;;;1.45;;
12059;SDS011;6091;51.432;6.880;2022-11-12T03:13:05;1.40;;;1.30;;
12059;SDS011;6091;51.432;6.880;2022-11-12T03:15:32;1.50;;;1.40;;
12059;SDS011;6091;51.432;6.880;2022-11-12T03:17:59;1.50;;;1.40;;
12059;SDS011;6091;51.432;6.880;2022-11-12T03:20:26;1.30;;;1.20;;
12059;SDS011;6091;51.432;6.880;2022-11-12T03:22:55;1.30;;;1.20;;
12059;SDS011;6091;51.432;6.880;2022-11-12T03:25:25;1.55;;;1.45;;
12059;SDS011;6091;51.432;6.880;2022-11-12T03:28:12;1.40;;;1.30;;
12059;SDS011;6091;51.432;6.880;2022-11-12T03:30:42;1.35;;;1.15;;
12059;SDS011;6091;51.432;6.880;2022-11-12T03:33:11;1.52;;;1.42;;
12059;SDS011;6091;51.432;6.880;2022-11-12T03:35:40;1.60;;;1.40;;
12059;SDS011;6091;51.432;6.880;2022-11-12T03:38:07;1.40;;;1.30;;
12059;SDS011;6091;51.432;6.880;2022-11-12T03:40:34;1.50;;;1.40;;
12059;SDS011;6091;51.432;6.880;2022-11-12T03:43:01;1.10;;;1.10;;
12059;SDS011;6091;51.432;6.880;2022-11-12T03:45:28;1.35;;;1.20;;
12059;SDS011;6091;51.432;6.880;2022-11-12T03:47:56;1.40;;;1.30;;
12059;SDS011;6091;51.432;6.880;2022-11-12T03:50:25;1.60;;;1.50;;
12059;SDS011;6091;51.432;6.880;2022-11-12T03:52:55;1.27;;;1.17;;
12059;SDS011;6091;51.432;6.880;2022-11-12T03:55:25;1.50;;;1.40;;
12059;SDS011;6091;51.432;6.880;2022-11-12T03:57:54;1.20;;;1.10;;
12059;SDS011;6091;51.432;6.880;2022-11-12T04:00:23;1.10;;;1.10;;
12059;SDS011;6091;51.432;6.880;2022-11-12T04:02:52;1.40;;;1.30;;
12059;SDS011;6091;51.432;6.880;2022-11-12T04:05:20;1.30;;;1.20;;
12059;SDS011;6091;51.432;6.880;2022-11-12T04:08:14;1.20;;;1.15;;
12059;SDS011;6091;51.432;6.880;2022-11-12T04:13:38;1.38;;;1.27;;
12059;SDS011;6091;51.432;6.880;2022-11-12T04:16:11;1.30;;;1.20;;
12059;SDS011;6091;51.432;6.880;2022-11-12T04:19:10;1.30;;;1.20;;
12059;SDS011;6091;51.432;6.880;2022-11-12T04:21:59;1.50;;;1.40;;
12059;SDS011;6091;51.432;6.880;2022-11-12T04:24:37;1.20;;;1.10;;
12059;SDS011;6091;51.432;6.880;2022-11-12T04:27:25;1.30;;;1.20;;
12059;SDS011;6091;51.432;6.880;2022-11-12T04:29:56;1.40;;;1.30;;
12059;SDS011;6091;51.432;6.880;2022-11-12T04:32:48;1.27;;;1.17;;
12059;SDS011;6091;51.432;6.880;2022-11-12T04:35:22;1.25;;;1.15;;
12059;SDS011;6091;51.432;6.880;2022-11-12T04:37:51;1.33;;;1.23;;
12059;SDS011;6091;51.432;6.880;2022-11-12T04:40:23;1.25;;;1.15;;
12059;SDS011;6091;51.432;6.880;2022-11-12T04:43:30;1.42;;;1.33;;
12059;SDS011;6091;51.432;6.880;2022-11-12T04:46:16;1.52;;;1.40;;
12059;SDS011;6091;51.432;6.880;2022-11-12T04:48:43;1.20;;;1.10;;
12059;SDS011;6091;51.432;6.880;2022-11-12T04:51:09;1.30;;;1.20;;
12059;SDS011;6091;51.432;6.880;2022-11-12T04:53:56;1.33;;;1.23;;
12059;SDS011;6091;51.432;6.880;2022-11-12T04:56:22;1.48;;;1.38;;
12059;SDS011;6091;51.432;6.880;2022-11-12T04:58:49;1.35;;;1.25;;
12059;SDS011;6091;51.432;6.880;2022-11-12T05:01:16;1.20;;;1.10;;
12059;SDS011;6091;51.432;6.880;2022-11-12T05:03:43;1.40;;;1.30;;
12059;SDS011;6091;51.432;6.880;2022-11-12T05:06:10;1.25;;;1.20;;
12059;SDS011;6091;51.432;6.880;2022-11-12T05:08:56;1.20;;;1.10;;
12059;SDS011;6091;51.432;6.880;2022-11-12T05:11:23;1.00;;;1.00;;
12059;SDS011;6091;51.432;6.880;2022-11-12T05:13:49;1.40;;;1.30;;
12059;SDS011;6091;51.432;6.880;2022-11-12T05:16:16;1.20;;;1.10;;
12059;SDS011;6091;51.432;6.880;2022-11-12T05:18:43;1.48;;;1.38;;
12059;SDS011;6091;51.432;6.880;2022-11-12T05:21:10;1.50;;;1.40;;
12059;SDS011;6091;51.432;6.880;2022-11-12T05:23:56;1.20;;;1.10;;
12059;SDS011;6091;51.432;6.880;2022-11-12T05:26:23;1.30;;;1.20;;
12059;SDS011;6091;51.432;6.880;2022-11-12T05:28:50;1.40;;;1.30;;
12059;SDS011;6091;51.432;6.880;2022-11-12T05:31:17;1.40;;;1.30;;
12059;SDS011;6091;51.432;6.880;2022-11-12T05:33:44;1.38;;;1.27;;
12059;SDS011;6091;51.432;6.880;2022-11-12T05:36:11;1.00;;;1.00;;
12059;SDS011;6091;51.432;6.880;2022-11-12T05:38:38;1.30;;;1.20;;
12059;SDS011;6091;51.432;6.880;2022-11-12T05:41:04;1.38;;;1.27;;
12059;SDS011;6091;51.432;6.880;2022-11-12T05:43:31;1.27;;;1.17;;
12059;SDS011;6091;51.432;6.880;2022-11-12T05:45:58;1.20;;;1.10;;
12059;SDS011;6091;51.432;6.880;2022-11-12T05:48:25;1.35;;;1.25;;
12059;SDS011;6091;51.432;6.880;2022-11-12T05:50:53;1.20;;;1.10;;
12059;SDS011;6091;51.432;6.880;2022-11-12T05:53:40;1.27;;;1.17;;
12059;SDS011;6091;51.432;6.880;2022-11-12T05:56:08;1.77;;;1.10;;
12059;SDS011;6091;51.432;6.880;2022-11-12T05:58:36;0.95;;;0.95;;
12059;SDS011;6091;51.432;6.880;2022-11-12T06:01:03;1.30;;;1.20;;
12059;SDS011;6091;51.432;6.880;2022-11-12T06:03:31;0.85;;;0.85;;
12059;SDS011;6091;51.432;6.880;2022-11-12T06:05:58;1.30;;;1.10;;
12059;SDS011;6091;51.432;6.880;2022-11-12T06:08:25;1.40;;;1.30;;
12059;SDS011;6091;51.432;6.880;2022-11-12T06:10:53;1.00;;;1.00;;
12059;SDS011;6091;51.432;6.880;2022-11-12T06:13:21;0.98;;;0.98;;
12059;SDS011;6091;51.432;6.880;2022-11-12T06:15:51;1.25;;;1.15;;
12059;SDS011;6091;51.432;6.880;2022-11-12T06:18:20;1.10;;;1.10;;
12059;SDS011;6091;51.432;6.880;2022-11-12T06:20:48;1.10;;;1.00;;
12059;SDS011;6091;51.432;6.880;2022-11-12T06:23:35;1.13;;;1.08;;
12059;SDS011;6091;51.432;6.880;2022-11-12T06:26:02;1.20;;;1.10;;
12059;SDS011;6091;51.432;6.880;2022-11-12T06:28:30;1.30;;;1.20;;
12059;SDS011;6091;51.432;6.880;2022-11-12T06:30:57;1.25;;;1.15;;
12059;SDS011;6091;51.432;6.880;2022-11-12T06:33:24;1.10;;;1.00;;
12059;SDS011;6091;51.432;6.880;2022-11-12T06:36:01;1.27;;;1.17;;
12059;SDS011;6091;51.432;6.880;2022-11-12T06:38:37;0.90;;;0.90;;
12059;SDS011;6091;51.432;6.880;2022-11-12T06:41:06;0.98;;;0.98;;
12059;SDS011;6091;51.432;6.880;2022-11-12T06:43:36;1.45;;;1.35;;
12059;SDS011;6091;51.432;6.880;2022-11-12T06:46:10;1.20;;;1.10;;
12059;SDS011;6091;51.432;6.880;2022-11-12T06:48:40;1.15;;;1.10;;
12059;SDS011;6091;51.432;6.880;2022-11-12T06:51:19;1.15;;;1.13;;
12059;SDS011;6091;51.432;6.880;2022-11-12T06:53:47;1.00;;;1.00;;
12059;SDS011;6091;51.432;6.880;2022-11-12T06:56:15;1.13;;;1.10;;
12059;SDS011;6091;51.432;6.880;2022-11-12T06:58:42;1.02;;;1.00;;
12059;SDS011;6091;51.432;6.880;2022-11-12T07:01:10;1.15;;;1.05;;
12059;SDS011;6091;51.432;6.880;2022-11-12T07:03:40;1.15;;;1.05;;
12059;SDS011;6091;51.432;6.880;2022-11-12T07:06:13;1.30;;;1.20;;
12059;SDS011;6091;51.432;6.880;2022-11-12T07:08:45;1.00;;;1.00;;
12059;SDS011;6091;51.432;6.880;2022-11-12T07:11:15;1.00;;;1.00;;
12059;SDS011;6091;51.432;6.880;2022-11-12T07:13:45;1.02;;;1.02;;
12059;SDS011;6091;51.432;6.880;2022-11-12T07:16:13;1.20;;;1.10;;
12059;SDS011;6091;51.432;6.880;2022-11-12T07:18:44;1.20;;;1.10;;
12059;SDS011;6091;51.432;6.880;2022-11-12T07:21:14;1.10;;;1.10;;
12059;SDS011;6091;51.432;6.880;2022-11-12T07:23:45;1.20;;;1.10;;
12059;SDS011;6091;51.432;6.880;2022-11-12T07:26:16;0.93;;;0.93;;
12059;SDS011;6091;51.432;6.880;2022-11-12T07:28:47;1.10;;;1.00;;
12059;SDS011;6091;51.432;6.880;2022-11-12T07:31:17;1.20;;;1.10;;
12059;SDS011;6091;51.432;6.880;2022-11-12T07:33:45;1.10;;;1.00;;
12059;SDS011;6091;51.432;6.880;2022-11-12T07:36:16;0.98;;;0.98;;
12059;SDS011;6091;51.432;6.880;2022-11-12T07:38:45;0.98;;;0.98;;
12059;SDS011;6091;51.432;6.880;2022-11-12T07:41:16;1.25;;;1.15;;
12059;SDS011;6091;51.432;6.880;2022-11-12T07:43:46;1.45;;;1.35;;
12059;SDS011;6091;51.432;6.880;2022-11-12T07:46:20;1.20;;;1.10;;
12059;SDS011;6091;51.432;6.880;2022-11-12T07:48:52;2.70;;;1.20;;
12059;SDS011;6091;51.432;6.880;2022-11-12T07:51:21;1.20;;;1.10;;
12059;SDS011;6091;51.432;6.880;2022-11-12T07:53:51;1.30;;;1.20;;
12059;SDS011;6091;51.432;6.880;2022-11-12T07:56:25;1.27;;;1.15;;
12059;SDS011;6091;51.432;6.880;2022-11-12T07:58:53;1.15;;;1.05;;
12059;SDS011;6091;51.432;6.880;2022-11-12T08:01:31;0.95;;;0.95;;
12059;SDS011;6091;51.432;6.880;2022-11-12T08:04:02;0.93;;;0.93;;
12059;SDS011;6091;51.432;6.880;2022-11-12T08:06:31;1.17;;;1.08;;
12059;SDS011;6091;51.432;6.880;2022-11-12T08:08:59;1.15;;;1.05;;
12059;SDS011;6091;51.432;6.880;2022-11-12T08:11:30;1.02;;;1.00;;
12059;SDS011;6091;51.432;6.880;2022-11-12T08:13:57;2.08;;;1.17;;
12059;SDS011;6091;51.432;6.880;2022-11-12T08:16:25;1.05;;;1.05;;
12059;SDS011;6091;51.432;6.880;2022-11-12T08:18:52;0.98;;;0.98;;
12059;SDS011;6091;51.432;6.880;2022-11-12T08:21:19;1.20;;;1.10;;
12059;SDS011;6091;51.432;6.880;2022-11-12T08:23:46;5.15;;;1.40;;
12059;SDS011;6091;51.432;6.880;2022-11-12T08:26:14;2.75;;;1.33;;
12059;SDS011;6091;51.432;6.880;2022-11-12T08:28:44;1.17;;;1.08;;
12059;SDS011;6091;51.432;6.880;2022-11-12T08:31:16;1.10;;;1.00;;
12059;SDS011;6091;51.432;6.880;2022-11-12T08:33:48;1.80;;;1.10;;
12059;SDS011;6091;51.432;6.880;2022-11-12T08:36:15;1.08;;;1.08;;
12059;SDS011;6091;51.432;6.880;2022-11-12T08:38:43;1.17;;;1.08;;
12059;SDS011;6091;51.432;6.880;2022-11-12T08:41:11;1.50;;;1.20;;
12059;SDS011;6091;51.432;6.880;2022-11-12T08:43:40;1.30;;;1.20;;
12059;SDS011;6091;51.432;6.880;2022-11-12T08:46:08;0.90;;;0.90;;
12059;SDS011;6091;51.432;6.880;2022-11-12T08:48:35;1.27;;;0.98;;
12059;SDS011;6091;51.432;6.880;2022-11-12T08:51:05;1.20;;;1.10;;
12059;SDS011;6091;51.432;6.880;2022-11-12T08:53:33;1.05;;;1.05;;
12059;SDS011;6091;51.432;6.880;2022-11-12T08:56:00;1.13;;;1.02;;
12059;SDS011;6091;51.432;6.880;2022-11-12T08:58:28;1.15;;;1.08;;
12059;SDS011;6091;51.432;6.880;2022-11-12T09:00:55;1.10;;;1.00;;
12059;SDS011;6091;51.432;6.880;2022-11-12T09:03:29;2.03;;;1.27;;
12059;SDS011;6091;51.432;6.880;2022-11-12T09:06:01;1.40;;;1.30;;
12059;SDS011;6091;51.432;6.880;2022-11-12T09:08:31;1.10;;;1.00;;
12059;SDS011;6091;51.432;6.880;2022-11-12T09:10:59;1.00;;;1.00;;
12059;SDS011;6091;51.432;6.880;2022-11-12T09:13:26;1.00;;;1.00;;
12059;SDS011;6091;51.432;6.880;2022-11-12T09:15:58;1.10;;;1.00;;
12059;SDS011;6091;51.432;6.880;2022-11-12T09:18:27;1.20;;;1.10;;
12059;SDS011;6091;51.432;6.880;2022-11-12T09:20:58;1.45;;;1.30;;
12059;SDS011;6091;51.432;6.880;2022-11-12T09:23:32;1.38;;;1.08;;
12059;SDS011;6091;51.432;6.880;2022-11-12T09:26:01;1.27;;;1.13;;
12059;SDS011;6091;51.432;6.880;2022-11-12T09:28:29;1.30;;;1.20;;
12059;SDS011;6091;51.432;6.880;2022-11-12T09:30:57;1.40;;;1.30;;
12059;SDS011;6091;51.432;6.880;2022-11-12T09:33:31;1.58;;;1.25;;
12059;SDS011;6091;51.432;6.880;2022-11-12T09:35:59;2.60;;;1.65;;
12059;SDS011;6091;51.432;6.880;2022-11-12T09:38:28;1.75;;;1.38;;
12059;SDS011;6091;51.432;6.880;2022-11-12T09:43:51;3.45;;;1.67;;
12059;SDS011;6091;51.432;6.880;2022-11-12T09:49:34;3.92;;;1.77;;
12059;SDS011;6091;51.432;6.880;2022-11-12T09:52:24;6.35;;;2.58;;
12059;SDS011;6091;51.432;6.880;2022-11-12T09:54:56;1.85;;;1.50;;
12059;SDS011;6091;51.432;6.880;2022-11-12T09:57:38;3.72;;;1.73;;
12059;SDS011;6091;51.432;6.880;2022-11-12T10:00:12;3.75;;;1.80;;
12059;SDS011;6091;51.432;6.880;2022-11-12T10:03:01;5.43;;;1.73;;
12059;SDS011;6091;51.432;6.880;2022-11-12T10:06:03;3.05;;;1.73;;
12059;SDS011;6091;51.432;6.880;2022-11-12T10:08:46;2.38;;;1.50;;
12059;SDS011;6091;51.432;6.880;2022-11-12T10:24:09;3.97;;;1.67;;
12059;SDS011;6091;51.432;6.880;2022-11-12T10:26:37;1.95;;;1.48;;
12059;SDS011;6091;51.432;6.880;2022-11-12T10:32:03;2.17;;;1.60;;
12059;SDS011;6091;51.432;6.880;2022-11-12T10:34:30;2.25;;;1.80;;
12059;SDS011;6091;51.432;6.880;2022-11-12T10:37:01;2.67;;;1.80;;
12059;SDS011;6091;51.432;6.880;2022-11-12T10:39:39;2.00;;;1.65;;
12059;SDS011;6091;51.432;6.880;2022-11-12T10:42:13;3.65;;;1.70;;
12059;SDS011;6091;51.432;6.880;2022-11-12T10:44:43;2.80;;;1.60;;
12059;SDS011;6091;51.432;6.880;2022-11-12T10:50:10;4.38;;;1.77;;
12059;SDS011;6091;51.432;6.880;2022-11-12T10:55:29;1.52;;;1.38;;
12059;SDS011;6091;51.432;6.880;2022-11-12T11:00:37;1.98;;;1.70;;
12059;SDS011;6091;51.432;6.880;2022-11-12T11:03:28;1.48;;;1.35;;
12059;SDS011;6091;51.432;6.880;2022-11-12T11:06:06;2.08;;;1.58;;
12059;SDS011;6091;51.432;6.880;2022-11-12T11:09:06;1.95;;;1.55;;
12059;SDS011;6091;51.432;6.880;2022-11-12T11:11:49;3.03;;;1.35;;
12059;SDS011;6091;51.432;6.880;2022-11-12T11:16:51;2.58;;;1.55;;
12059;SDS011;6091;51.432;6.880;2022-11-12T11:19:38;2.22;;;1.27;;
12059;SDS011;6091;51.432;6.880;2022-11-12T11:22:41;1.77;;;1.50;;
12059;SDS011;6091;51.432;6.880;2022-11-12T11:25:16;2.65;;;1.20;;
12059;SDS011;6091;51.432;6.880;2022-11-12T11:34:13;1.35;;;1.25;;
12059;SDS011;6091;51.432;6.880;2022-11-12T11:40:09;3.60;;;1.40;;
12059;SDS011;6091;51.432;6.880;2022-11-12T11:43:04;3.13;;;1.55;;
12059;SDS011;6091;51.432;6.880;2022-11-12T12:00:46;2.22;;;1.50;;
12059;SDS011;6091;51.432;6.880;2022-11-12T12:07:00;6.80;;;1.67;;
12059;SDS011;6091;51.432;6.880;2022-11-12T12:12:50;3.25;;;1.95;;
12059;SDS011;6091;51.432;6.880;2022-11-12T12:21:15;2.90;;;1.52;;
12059;SDS011;6091;51.432;6.880;2022-11-12T12:23:47;2.92;;;1.52;;
12059;SDS011;6091;51.432;6.880;2022-11-12T12:26:39;3.83;;;1.60;;
12059;SDS011;6091;51.432;6.880;2022-11-12T12:32:17;3.55;;;1.50;;
12059;SDS011;6091;51.432;6.880;2022-11-12T12:35:12;2.40;;;1.33;;
12059;SDS011;6091;51.432;6.880;2022-11-12T12:38:27;3.70;;;1.30;;
12059;SDS011;6091;51.432;6.880;2022-11-12T12:44:07;3.28;;;1.27;;
12059;SDS011;6091;51.432;6.880;2022-11-12T12:46:43;2.35;;;1.48;;
12059;SDS011;6091;51.432;6.880;2022-11-12T12:49:17;2.83;;;1.30;;
12059;SDS011;6091;51.432;6.880;2022-11-12T12:51:56;1.23;;;1.05;;
12059;SDS011;6091;51.432;6.880;2022-11-12T12:57:01;3.78;;;1.38;;
12059;SDS011;6091;51.432;6.880;2022-11-12T12:59:29;1.52;;;1.13;;
12059;SDS011;6091;51.432;6.880;2022-11-12T13:02:00;1.23;;;1.10;;
12059;SDS011;6091;51.432;6.880;2022-11-12T13:07:40;3.40;;;1.40;;
12059;SDS011;6091;51.432;6.880;2022-11-12T13:10:32;1.70;;;1.30;;
12059;SDS011;6091;51.432;6.880;2022-11-12T13:15:47;3.03;;;1.70;;
12059;SDS011;6091;51.432;6.880;2022-11-12T13:21:19;5.63;;;1.90;;
12059;SDS011;6091;51.432;6.880;2022-11-12T13:23:47;4.25;;;1.70;;
12059;SDS011;6091;51.432;6.880;2022-11-12T13:29:51;3.65;;;1.65;;
12059;SDS011;6091;51.432;6.880;2022-11-12T13:40:38;5.00;;;1.30;;
12059;SDS011;6091;51.432;6.880;2022-11-12T13:46:45;6.30;;;1.42;;
12059;SDS011;6091;51.432;6.880;2022-11-12T13:49:09;3.63;;;1.50;;
12059;SDS011;6091;51.432;6.880;2022-11-12T13:51:41;7.20;;;1.48;;
12059;SDS011;6091;51.432;6.880;2022-11-12T13:54:34;5.18;;;1.48;;
12059;SDS011;6091;51.432;6.880;2022-11-12T13:59:45;5.53;;;1.48;;
12059;SDS011;6091;51.432;6.880;2022-11-12T14:02:20;2.63;;;1.35;;
12059;SDS011;6091;51.432;6.880;2022-11-12T14:04:51;4.03;;;1.48;;
12059;SDS011;6091;51.432;6.880;2022-11-12T14:10:04;4.05;;;1.60;;
12059;SDS011;6091;51.432;6.880;2022-11-12T14:15:26;5.00;;;1.60;;
12059;SDS011;6091;51.432;6.880;2022-11-12T14:20:41;6.07;;;1.75;;
12059;SDS011;6091;51.432;6.880;2022-11-12T14:23:16;5.85;;;1.50;;
12059;SDS011;6091;51.432;6.880;2022-11-12T14:25:53;4.10;;;1.67;;
12059;SDS011;6091;51.432;6.880;2022-11-12T14:30:59;4.70;;;1.40;;
12059;SDS011;6091;51.432;6.880;2022-11-12T14:33:29;3.45;;;1.85;;
12059;SDS011;6091;51.432;6.880;2022-11-12T14:36:10;3.47;;;1.52;;
12059;SDS011;6091;51.432;6.880;2022-11-12T14:41:15;2.45;;;1.58;;
12059;SDS011;6091;51.432;6.880;2022-11-12T14:43:49;2.13;;;1.58;;
12059;SDS011;6091;51.432;6.880;2022-11-12T14:46:38;2.05;;;1.17;;
12059;SDS011;6091;51.432;6.880;2022-11-12T14:49:20;3.28;;;1.40;;
12059;SDS011;6091;51.432;6.880;2022-11-12T14:52:11;2.35;;;1.33;;
12059;SDS011;6091;51.432;6.880;2022-11-12T14:54:49;3.10;;;1.30;;
12059;SDS011;6091;51.432;6.880;2022-11-12T14:57:25;2.72;;;1.38;;
12059;SDS011;6091;51.432;6.880;2022-11-12T14:59:55;3.33;;;1.60;;
12059;SDS011;6091;51.432;6.880;2022-11-12T15:02:30;4.10;;;1.48;;
12059;SDS011;6091;51.432;6.880;2022-11-12T15:05:19;2.20;;;1.38;;
12059;SDS011;6091;51.432;6.880;2022-11-12T15:10:29;4.30;;;1.30;;
12059;SDS011;6091;51.432;6.880;2022-11-12T15:15:50;1.83;;;1.48;;
12059;SDS011;6091;51.432;6.880;2022-11-12T15:18:29;2.10;;;1.20;;
12059;SDS011;6091;51.432;6.880;2022-11-12T15:21:22;2.25;;;1.50;;
12059;SDS011;6091;51.432;6.880;2022-11-12T15:23:59;1.60;;;1.40;;
12059;SDS011;6091;51.432;6.880;2022-11-12T15:26:45;1.92;;;1.40;;
12059;SDS011;6091;51.432;6.880;2022-11-12T15:29:23;3.50;;;1.10;;
12059;SDS011;6091;51.432;6.880;2022-11-12T15:32:03;3.33;;;1.25;;
12059;SDS011;6091;51.432;6.880;2022-11-12T15:34:49;2.83;;;1.25;;
12059;SDS011;6091;51.432;6.880;2022-11-12T15:39:45;3.08;;;1.45;;
12059;SDS011;6091;51.432;6.880;2022-11-12T15:42:26;3.35;;;1.55;;
12059;SDS011;6091;51.432;6.880;2022-11-12T15:44:59;1.63;;;1.25;;
12059;SDS011;6091;51.432;6.880;2022-11-12T15:47:34;1.58;;;1.25;;
12059;SDS011;6091;51.432;6.880;2022-11-12T15:50:03;3.75;;;1.40;;
12059;SDS011;6091;51.432;6.880;2022-11-12T15:52:46;2.03;;;1.05;;
12059;SDS011;6091;51.432;6.880;2022-11-12T15:55:14;1.58;;;1.40;;
12059;SDS011;6091;51.432;6.880;2022-11-12T15:57:49;3.10;;;1.30;;
12059;SDS011;6091;51.432;6.880;2022-11-12T16:00:18;2.40;;;1.13;;
12059;SDS011;6091;51.432;6.880;2022-11-12T16:02:55;2.60;;;1.35;;
12059;SDS011;6091;51.432;6.880;2022-11-12T16:05:37;1.00;;;1.00;;
12059;SDS011;6091;51.432;6.880;2022-11-12T16:08:04;1.27;;;1.17;;
12059;SDS011;6091;51.432;6.880;2022-11-12T16:10:31;1.48;;;1.10;;
12059;SDS011;6091;51.432;6.880;2022-11-12T16:12:58;2.65;;;1.02;;
12059;SDS011;6091;51.432;6.880;2022-11-12T16:15:27;1.10;;;1.00;;
12059;SDS011;6091;51.432;6.880;2022-11-12T16:17:55;2.03;;;1.35;;
12059;SDS011;6091;51.432;6.880;2022-11-12T16:20:26;2.88;;;1.30;;
12059;SDS011;6091;51.432;6.880;2022-11-12T16:22:59;1.52;;;1.20;;
12059;SDS011;6091;51.432;6.880;2022-11-12T16:25:27;1.70;;;1.20;;
12059;SDS011;6091;51.432;6.880;2022-11-12T16:27:58;1.80;;;1.15;;
12059;SDS011;6091;51.432;6.880;2022-11-12T16:30:28;3.88;;;1.33;;
12059;SDS011;6091;51.432;6.880;2022-11-12T16:32:58;1.30;;;1.20;;
12059;SDS011;6091;51.432;6.880;2022-11-12T16:35:26;2.22;;;1.13;;
12059;SDS011;6091;51.432;6.880;2022-11-12T16:37:58;1.73;;;1.02;;
12059;SDS011;6091;51.432;6.880;2022-11-12T16:40:27;2.80;;;1.40;;
12059;SDS011;6091;51.432;6.880;2022-11-12T16:42:55;3.53;;;1.10;;
12059;SDS011;6091;51.432;6.880;2022-11-12T16:45:24;1.77;;;1.10;;
12059;SDS011;6091;51.432;6.880;2022-11-12T16:48:00;2.08;;;1.40;;
12059;SDS011;6091;51.432;6.880;2022-11-12T16:50:38;2.00;;;1.25;;
12059;SDS011;6091;51.432;6.880;2022-11-12T16:53:05;2.45;;;1.40;;
12059;SDS011;6091;51.432;6.880;2022-11-12T16:55:32;2.03;;;1.40;;
12059;SDS011;6091;51.432;6.880;2022-11-12T16:57:59;2.45;;;1.25;;
12059;SDS011;6091;51.432;6.880;2022-11-12T17:00:26;2.10;;;1.25;;
12059;SDS011;6091;51.432;6.880;2022-11-12T17:02:53;1.20;;;1.10;;
12059;SDS011;6091;51.432;6.880;2022-11-12T17:05:21;2.70;;;1.27;;
12059;SDS011;6091;51.432;6.880;2022-11-12T17:07:54;2.22;;;1.50;;
12059;SDS011;6091;51.432;6.880;2022-11-12T17:10:23;1.50;;;1.30;;
12059;SDS011;6091;51.432;6.880;2022-11-12T17:12:50;1.33;;;1.20;;
12059;SDS011;6091;51.432;6.880;2022-11-12T17:15:18;1.85;;;1.30;;
12059;SDS011;6091;51.432;6.880;2022-11-12T17:17:45;2.65;;;1.40;;
12059;SDS011;6091;51.432;6.880;2022-11-12T17:20:12;2.22;;;1.35;;
12059;SDS011;6091;51.432;6.880;2022-11-12T17:22:39;1.90;;;1.13;;
12059;SDS011;6091;51.432;6.880;2022-11-12T17:25:07;1.30;;;1.20;;
12059;SDS011;6091;51.432;6.880;2022-11-12T17:27:34;2.08;;;1.30;;
12059;SDS011;6091;51.432;6.880;2022-11-12T17:30:01;1.73;;;1.15;;
12059;SDS011;6091;51.432;6.880;2022-11-12T17:32:29;2.63;;;1.40;;
12059;SDS011;6091;51.432;6.880;2022-11-12T17:34:57;2.78;;;1.20;;
12059;SDS011;6091;51.432;6.880;2022-11-12T17:37:24;1.70;;;1.20;;
12059;SDS011;6091;51.432;6.880;2022-11-12T17:39:51;2.38;;;1.27;;
12059;SDS011;6091;51.432;6.880;2022-11-12T17:42:17;3.35;;;1.30;;
12059;SDS011;6091;51.432;6.880;2022-11-12T17:44:44;2.13;;;1.25;;